sensor_id;sensor_type;location;lat;lon;timestamp;pressure;altitude;pressure_sealevel;temperature;humidity
68941;BME280;55982;51.476;7.552;2023-05-22T00:00:06;99672.19;;;16.19;100.00
68941;BME280;55982;51.476;7.552;2023-05-22T00:02:33;99679.50;;;16.14;100.00
68941;BME280;55982;51.476;7.552;2023-05-22T00:05:06;99676.38;;;16.08;100.00
68941;BME280;55982;51.476;7.552;2023-05-22T00:07:31;99672.88;;;16.07;100.00
68941;BME280;55982;51.476;7.552;2023-05-22T00:09:57;99669.63;;;16.02;100.00
68941;BME280;55982;51.476;7.552;2023-05-22T00:12:22;99675.88;;;16.01;100.00
68941;BME280;55982;51.476;7.552;2023-05-22T00:14:47;99667.19;;;15.99;100.00
68941;BME280;55982;51.476;7.552;2023-05-22T00:17:13;99668.63;;;15.89;100.00
68941;BME280;55982;51.476;7.552;2023-05-22T00:19:41;99668.81;;;15.86;100.00
68941;BME280;55982;51.476;7.552;2023-05-22T00:22:08;99670.34;;;15.90;100.00
68941;BME280;55982;51.476;7.552;2023-05-22T00:24:33;99675.78;;;15.87;100.00
68941;BME280;55982;51.476;7.552;2023-05-22T00:26:58;99665.44;;;15.84;100.00
68941;BME280;55982;51.476;7.552;2023-05-22T00:29:24;99672.56;;;15.82;100.00
68941;BME280;55982;51.476;7.552;2023-05-22T00:31:49;99665.25;;;15.87;100.00
68941;BME280;55982;51.476;7.552;2023-05-22T00:34:15;99661.84;;;15.85;100.00
68941;BME280;55982;51.476;7.552;2023-05-22T00:36:40;99655.72;;;15.85;100.00
68941;BME280;55982;51.476;7.552;2023-05-22T00:39:06;99659.47;;;15.81;100.00
68941;BME280;55982;51.476;7.552;2023-05-22T00:41:31;99651.81;;;15.76;100.00
68941;BME280;55982;51.476;7.552;2023-05-22T00:44:00;99645.19;;;15.69;100.00
68941;BME280;55982;51.476;7.552;2023-05-22T00:46:27;99650.06;;;15.61;100.00
68941;BME280;55982;51.476;7.552;2023-05-22T00:48:52;99648.34;;;15.60;100.00
68941;BME280;55982;51.476;7.552;2023-05-22T00:51:22;99647.75;;;15.55;100.00
68941;BME280;55982;51.476;7.552;2023-05-22T00:53:49;99641.97;;;15.48;100.00
68941;BME280;55982;51.476;7.552;2023-05-22T00:56:15;99648.94;;;15.49;100.00
68941;BME280;55982;51.476;7.552;2023-05-22T00:58:41;99646.56;;;15.45;100.00
68941;BME280;55982;51.476;7.552;2023-05-22T01:01:08;99650.25;;;15.41;100.00
68941;BME280;55982;51.476;7.552;2023-05-22T01:03:36;99645.88;;;15.41;100.00
68941;BME280;55982;51.476;7.552;2023-05-22T01:06:06;99654.72;;;15.40;100.00
68941;BME280;55982;51.476;7.552;2023-05-22T01:08:32;99657.59;;;15.36;100.00
68941;BME280;55982;51.476;7.552;2023-05-22T01:11:04;99657.38;;;15.23;100.00
68941;BME280;55982;51.476;7.552;2023-05-22T01:16:38;99647.63;;;15.10;100.00
68941;BME280;55982;51.476;7.552;2023-05-22T01:22:09;99644.50;;;15.19;100.00
68941;BME280;55982;51.476;7.552;2023-05-22T01:33:50;99649.97;;;14.99;100.00
68941;BME280;55982;51.476;7.552;2023-05-22T01:36:20;99644.09;;;14.94;100.00
68941;BME280;55982;51.476;7.552;2023-05-22T01:38:50;99653.78;;;14.93;100.00
68941;BME280;55982;51.476;7.552;2023-05-22T01:41:17;99641.25;;;14.98;100.00
68941;BME280;55982;51.476;7.552;2023-05-22T01:43:44;99645.91;;;15.09;100.00
68941;BME280;55982;51.476;7.552;2023-05-22T01:46:10;99640.66;;;15.09;100.00
68941;BME280;55982;51.476;7.552;2023-05-22T01:48:35;99647.88;;;15.05;100.00
68941;BME280;55982;51.476;7.552;2023-05-22T01:51:14;99648.56;;;15.09;100.00
68941;BME280;55982;51.476;7.552;2023-05-22T01:53:51;99651.78;;;15.14;100.00
68941;BME280;55982;51.476;7.552;2023-05-22T01:56:29;99643.59;;;15.03;100.00
68941;BME280;55982;51.476;7.552;2023-05-22T01:59:03;99648.72;;;15.06;100.00
68941;BME280;55982;51.476;7.552;2023-05-22T02:01:35;99651.94;;;15.11;100.00
68941;BME280;55982;51.476;7.552;2023-05-22T02:04:03;99647.44;;;15.13;100.00
68941;BME280;55982;51.476;7.552;2023-05-22T02:06:31;99648.88;;;15.03;100.00
68941;BME280;55982;51.476;7.552;2023-05-22T02:08:58;99648.88;;;15.03;100.00
68941;BME280;55982;51.476;7.552;2023-05-22T02:11:26;99643.28;;;15.09;100.00
68941;BME280;55982;51.476;7.552;2023-05-22T02:13:54;99646.34;;;15.17;100.00
68941;BME280;55982;51.476;7.552;2023-05-22T02:16:20;99648.03;;;15.18;100.00
68941;BME280;55982;51.476;7.552;2023-05-22T02:18:47;99645.59;;;15.15;100.00
68941;BME280;55982;51.476;7.552;2023-05-22T02:21:12;99642.78;;;15.18;100.00
68941;BME280;55982;51.476;7.552;2023-05-22T02:23:38;99644.31;;;15.22;100.00
68941;BME280;55982;51.476;7.552;2023-05-22T02:26:04;99641.44;;;15.26;100.00
68941;BME280;55982;51.476;7.552;2023-05-22T02:28:29;99649.69;;;15.36;100.00
68941;BME280;55982;51.476;7.552;2023-05-22T02:30:55;99639.72;;;15.41;100.00
68941;BME280;55982;51.476;7.552;2023-05-22T02:33:20;99639.50;;;15.45;100.00
68941;BME280;55982;51.476;7.552;2023-05-22T02:35:46;99635.69;;;15.51;100.00
68941;BME280;55982;51.476;7.552;2023-05-22T02:38:11;99633.63;;;15.56;100.00
68941;BME280;55982;51.476;7.552;2023-05-22T02:40:37;99632.28;;;15.49;100.00
68941;BME280;55982;51.476;7.552;2023-05-22T02:43:02;99634.44;;;15.41;100.00
68941;BME280;55982;51.476;7.552;2023-05-22T02:45:28;99636.50;;;15.36;100.00
68941;BME280;55982;51.476;7.552;2023-05-22T02:47:53;99634.44;;;15.41;100.00
68941;BME280;55982;51.476;7.552;2023-05-22T02:50:19;99624.94;;;15.38;100.00
68941;BME280;55982;51.476;7.552;2023-05-22T02:52:44;99627.66;;;15.37;100.00
68941;BME280;55982;51.476;7.552;2023-05-22T02:55:10;99632.09;;;15.36;100.00
68941;BME280;55982;51.476;7.552;2023-05-22T02:57:38;99627.81;;;15.34;100.00
68941;BME280;55982;51.476;7.552;2023-05-22T03:00:03;99621.03;;;15.30;100.00
68941;BME280;55982;51.476;7.552;2023-05-22T03:02:36;99613.44;;;15.24;100.00
68941;BME280;55982;51.476;7.552;2023-05-22T03:05:01;99617.28;;;15.18;100.00
68941;BME280;55982;51.476;7.552;2023-05-22T03:07:26;99619.06;;;15.18;100.00
68941;BME280;55982;51.476;7.552;2023-05-22T03:09:53;99625.78;;;15.08;100.00
68941;BME280;55982;51.476;7.552;2023-05-22T03:12:19;99616.22;;;14.90;100.00
68941;BME280;55982;51.476;7.552;2023-05-22T03:14:46;99611.16;;;14.87;100.00
68941;BME280;55982;51.476;7.552;2023-05-22T03:17:12;99616.41;;;14.87;100.00
68941;BME280;55982;51.476;7.552;2023-05-22T03:19:38;99613.91;;;14.84;100.00
68941;BME280;55982;51.476;7.552;2023-05-22T03:22:03;99616.72;;;14.81;100.00
68941;BME280;55982;51.476;7.552;2023-05-22T03:24:29;99614.69;;;14.86;100.00
68941;BME280;55982;51.476;7.552;2023-05-22T03:26:54;99613.16;;;14.82;100.00
68941;BME280;55982;51.476;7.552;2023-05-22T03:29:20;99614.34;;;14.76;100.00
68941;BME280;55982;51.476;7.552;2023-05-22T03:31:45;99607.63;;;14.71;100.00
68941;BME280;55982;51.476;7.552;2023-05-22T03:34:11;99611.78;;;14.75;100.00
68941;BME280;55982;51.476;7.552;2023-05-22T03:36:36;99606.53;;;14.75;100.00
68941;BME280;55982;51.476;7.552;2023-05-22T03:39:02;99605.91;;;14.69;100.00
68941;BME280;55982;51.476;7.552;2023-05-22T03:41:28;99603.13;;;14.73;100.00
68941;BME280;55982;51.476;7.552;2023-05-22T03:43:53;99604.81;;;14.74;100.00
68941;BME280;55982;51.476;7.552;2023-05-22T03:46:21;99614.50;;;14.73;100.00
68941;BME280;55982;51.476;7.552;2023-05-22T03:48:46;99601.41;;;14.72;100.00
68941;BME280;55982;51.476;7.552;2023-05-22T03:51:12;99617.19;;;14.72;100.00
68941;BME280;55982;51.476;7.552;2023-05-22T03:53:38;99609.38;;;14.70;100.00
68941;BME280;55982;51.476;7.552;2023-05-22T03:56:03;99610.53;;;14.82;100.00
68941;BME280;55982;51.476;7.552;2023-05-22T03:58:30;99612.69;;;14.74;100.00
68941;BME280;55982;51.476;7.552;2023-05-22T04:00:56;99613.16;;;14.82;100.00
68941;BME280;55982;51.476;7.552;2023-05-22T04:03:23;99615.78;;;14.82;100.00
68941;BME280;55982;51.476;7.552;2023-05-22T04:05:48;99613.06;;;14.83;100.00
68941;BME280;55982;51.476;7.552;2023-05-22T04:08:15;99613.00;;;14.85;100.00
68941;BME280;55982;51.476;7.552;2023-05-22T04:10:41;99612.06;;;14.86;100.00
68941;BME280;55982;51.476;7.552;2023-05-22T04:13:06;99614.53;;;14.89;100.00
68941;BME280;55982;51.476;7.552;2023-05-22T04:15:32;99616.41;;;14.87;100.00
68941;BME280;55982;51.476;7.552;2023-05-22T04:17:58;99618.69;;;14.93;100.00
68941;BME280;55982;51.476;7.552;2023-05-22T04:20:24;99619.63;;;14.92;100.00
68941;BME280;55982;51.476;7.552;2023-05-22T04:22:51;99612.00;;;15.03;100.00
68941;BME280;55982;51.476;7.552;2023-05-22T04:25:21;99607.91;;;14.97;100.00
68941;BME280;55982;51.476;7.552;2023-05-22T04:27:46;99610.31;;;15.02;100.00
68941;BME280;55982;51.476;7.552;2023-05-22T04:30:13;99606.25;;;15.12;100.00
68941;BME280;55982;51.476;7.552;2023-05-22T04:32:41;99602.31;;;15.19;100.00
68941;BME280;55982;51.476;7.552;2023-05-22T04:35:08;99605.38;;;15.27;100.00
68941;BME280;55982;51.476;7.552;2023-05-22T04:37:34;99605.72;;;15.36;100.00
68941;BME280;55982;51.476;7.552;2023-05-22T04:40:00;99609.66;;;15.45;100.00
68941;BME280;55982;51.476;7.552;2023-05-22T04:42:30;99613.56;;;15.53;100.00
68941;BME280;55982;51.476;7.552;2023-05-22T04:44:55;99618.97;;;15.66;100.00
68941;BME280;55982;51.476;7.552;2023-05-22T04:47:24;99610.31;;;15.64;100.00
68941;BME280;55982;51.476;7.552;2023-05-22T04:49:49;99607.94;;;15.75;100.00
68941;BME280;55982;51.476;7.552;2023-05-22T04:52:16;99602.47;;;15.78;100.00
68941;BME280;55982;51.476;7.552;2023-05-22T04:54:41;99608.28;;;15.69;100.00
68941;BME280;55982;51.476;7.552;2023-05-22T04:57:08;99600.75;;;15.77;100.00
68941;BME280;55982;51.476;7.552;2023-05-22T04:59:35;99598.88;;;15.79;100.00
68941;BME280;55982;51.476;7.552;2023-05-22T05:02:04;99603.63;;;15.88;100.00
68941;BME280;55982;51.476;7.552;2023-05-22T05:04:30;99597.47;;;16.03;100.00
68941;BME280;55982;51.476;7.552;2023-05-22T05:06:56;99603.91;;;16.13;100.00
68941;BME280;55982;51.476;7.552;2023-05-22T05:09:22;99599.94;;;16.20;100.00
68941;BME280;55982;51.476;7.552;2023-05-22T05:11:48;99599.75;;;16.23;100.00
68941;BME280;55982;51.476;7.552;2023-05-22T05:14:15;99599.69;;;16.39;100.00
68941;BME280;55982;51.476;7.552;2023-05-22T05:16:41;99595.38;;;16.52;100.00
68941;BME280;55982;51.476;7.552;2023-05-22T05:19:07;99599.28;;;16.61;100.00
68941;BME280;55982;51.476;7.552;2023-05-22T05:21:32;99592.47;;;16.57;100.00
68941;BME280;55982;51.476;7.552;2023-05-22T05:23:58;99583.63;;;16.58;100.00
68941;BME280;55982;51.476;7.552;2023-05-22T05:26:24;99590.78;;;16.70;100.00
68941;BME280;55982;51.476;7.552;2023-05-22T05:28:51;99590.31;;;16.77;100.00
68941;BME280;55982;51.476;7.552;2023-05-22T05:31:17;99586.91;;;17.03;100.00
68941;BME280;55982;51.476;7.552;2023-05-22T05:33:43;99592.13;;;17.31;100.00
68941;BME280;55982;51.476;7.552;2023-05-22T05:36:09;99581.50;;;17.19;100.00
68941;BME280;55982;51.476;7.552;2023-05-22T05:38:34;99590.69;;;17.40;100.00
68941;BME280;55982;51.476;7.552;2023-05-22T05:41:00;99576.53;;;17.27;100.00
68941;BME280;55982;51.476;7.552;2023-05-22T05:43:25;99580.50;;;17.34;100.00
68941;BME280;55982;51.476;7.552;2023-05-22T05:45:50;99581.69;;;17.57;100.00
68941;BME280;55982;51.476;7.552;2023-05-22T05:48:16;99582.56;;;17.70;100.00
68941;BME280;55982;51.476;7.552;2023-05-22T05:50:41;99587.25;;;18.05;100.00
68941;BME280;55982;51.476;7.552;2023-05-22T05:53:07;99577.81;;;18.14;100.00
68941;BME280;55982;51.476;7.552;2023-05-22T05:55:32;99581.41;;;18.25;100.00
68941;BME280;55982;51.476;7.552;2023-05-22T05:57:58;99583.47;;;18.60;100.00
68941;BME280;55982;51.476;7.552;2023-05-22T06:00:24;99582.09;;;18.67;100.00
68941;BME280;55982;51.476;7.552;2023-05-22T06:02:50;99577.88;;;18.77;100.00
68941;BME280;55982;51.476;7.552;2023-05-22T06:05:15;99573.16;;;18.93;100.00
68941;BME280;55982;51.476;7.552;2023-05-22T06:07:43;99562.63;;;19.04;100.00
68941;BME280;55982;51.476;7.552;2023-05-22T06:10:10;99560.13;;;19.26;100.00
68941;BME280;55982;51.476;7.552;2023-05-22T06:12:36;99559.53;;;19.46;100.00
68941;BME280;55982;51.476;7.552;2023-05-22T06:15:05;99557.94;;;19.91;100.00
68941;BME280;55982;51.476;7.552;2023-05-22T06:17:35;99558.84;;;20.14;100.00
68941;BME280;55982;51.476;7.552;2023-05-22T06:20:02;99559.53;;;20.50;100.00
68941;BME280;55982;51.476;7.552;2023-05-22T06:22:28;99553.38;;;20.39;100.00
68941;BME280;55982;51.476;7.552;2023-05-22T06:24:55;99557.63;;;20.18;100.00
68941;BME280;55982;51.476;7.552;2023-05-22T06:27:21;99561.88;;;20.09;100.00
68941;BME280;55982;51.476;7.552;2023-05-22T06:29:48;99567.50;;;19.93;100.00
68941;BME280;55982;51.476;7.552;2023-05-22T06:32:13;99567.94;;;19.87;100.00
68941;BME280;55982;51.476;7.552;2023-05-22T06:34:39;99558.13;;;19.77;100.00
68941;BME280;55982;51.476;7.552;2023-05-22T06:37:05;99556.88;;;19.93;100.00
68941;BME280;55982;51.476;7.552;2023-05-22T06:39:30;99560.47;;;19.92;100.00
68941;BME280;55982;51.476;7.552;2023-05-22T06:41:56;99569.09;;;19.72;100.00
68941;BME280;55982;51.476;7.552;2023-05-22T06:44:21;99574.72;;;19.44;100.00
68941;BME280;55982;51.476;7.552;2023-05-22T06:46:46;99577.72;;;19.27;100.00
68941;BME280;55982;51.476;7.552;2023-05-22T06:49:12;99582.53;;;19.58;100.00
68941;BME280;55982;51.476;7.552;2023-05-22T06:51:37;99579.22;;;19.44;100.00
68941;BME280;55982;51.476;7.552;2023-05-22T06:54:03;99578.19;;;19.57;100.00
68941;BME280;55982;51.476;7.552;2023-05-22T06:56:31;99585.69;;;19.63;100.00
68941;BME280;55982;51.476;7.552;2023-05-22T06:58:56;99581.03;;;20.01;100.00
68941;BME280;55982;51.476;7.552;2023-05-22T07:01:22;99577.97;;;20.19;100.00
68941;BME280;55982;51.476;7.552;2023-05-22T07:03:48;99582.44;;;20.18;100.00
68941;BME280;55982;51.476;7.552;2023-05-22T07:06:13;99576.81;;;20.34;100.00
68941;BME280;55982;51.476;7.552;2023-05-22T07:08:39;99582.44;;;20.18;100.00
68941;BME280;55982;51.476;7.552;2023-05-22T07:11:05;99590.84;;;20.58;100.00
68941;BME280;55982;51.476;7.552;2023-05-22T07:13:31;99582.63;;;20.94;100.00
68941;BME280;55982;51.476;7.552;2023-05-22T07:15:57;99573.97;;;21.03;100.00
68941;BME280;55982;51.476;7.552;2023-05-22T07:18:22;99580.22;;;21.24;100.00
68941;BME280;55982;51.476;7.552;2023-05-22T07:20:48;99581.69;;;21.06;100.00
68941;BME280;55982;51.476;7.552;2023-05-22T07:23:13;99582.38;;;21.41;100.00
68941;BME280;55982;51.476;7.552;2023-05-22T07:25:39;99579.22;;;21.79;100.00
68941;BME280;55982;51.476;7.552;2023-05-22T07:28:04;99569.16;;;21.94;100.00
68941;BME280;55982;51.476;7.552;2023-05-22T07:30:35;99573.72;;;22.03;100.00
68941;BME280;55982;51.476;7.552;2023-05-22T07:33:04;99577.19;;;21.71;100.00
68941;BME280;55982;51.476;7.552;2023-05-22T07:35:30;99577.88;;;21.96;100.00
68941;BME280;55982;51.476;7.552;2023-05-22T07:37:56;99576.78;;;22.19;100.00
68941;BME280;55982;51.476;7.552;2023-05-22T07:40:22;99576.88;;;22.79;100.00
68941;BME280;55982;51.476;7.552;2023-05-22T07:42:47;99580.22;;;22.51;100.00
68941;BME280;55982;51.476;7.552;2023-05-22T07:45:13;99577.53;;;22.51;100.00
68941;BME280;55982;51.476;7.552;2023-05-22T07:47:38;99569.78;;;22.48;100.00
68941;BME280;55982;51.476;7.552;2023-05-22T07:50:04;99573.84;;;22.63;100.00
68941;BME280;55982;51.476;7.552;2023-05-22T07:52:30;99576.31;;;23.25;100.00
68941;BME280;55982;51.476;7.552;2023-05-22T07:54:56;99571.69;;;23.67;100.00
68941;BME280;55982;51.476;7.552;2023-05-22T07:57:21;99573.78;;;23.23;100.00
68941;BME280;55982;51.476;7.552;2023-05-22T07:59:47;99569.72;;;23.78;100.00
68941;BME280;55982;51.476;7.552;2023-05-22T08:02:13;99566.44;;;23.75;100.00
68941;BME280;55982;51.476;7.552;2023-05-22T08:04:39;99573.19;;;23.10;100.00
68941;BME280;55982;51.476;7.552;2023-05-22T08:07:05;99583.88;;;23.10;100.00
68941;BME280;55982;51.476;7.552;2023-05-22T08:09:30;99590.53;;;22.86;100.00
68941;BME280;55982;51.476;7.552;2023-05-22T08:11:56;99589.41;;;22.88;100.00
68941;BME280;55982;51.476;7.552;2023-05-22T08:14:22;99594.91;;;23.26;100.00
68941;BME280;55982;51.476;7.552;2023-05-22T08:16:48;99584.97;;;24.62;100.00
68941;BME280;55982;51.476;7.552;2023-05-22T08:19:13;99584.06;;;24.90;100.00
68941;BME280;55982;51.476;7.552;2023-05-22T08:21:39;99583.84;;;25.01;100.00
68941;BME280;55982;51.476;7.552;2023-05-22T08:24:06;99579.53;;;24.44;100.00
68941;BME280;55982;51.476;7.552;2023-05-22T08:26:31;99579.00;;;23.93;100.00
68941;BME280;55982;51.476;7.552;2023-05-22T08:28:58;99577.34;;;24.67;100.00
68941;BME280;55982;51.476;7.552;2023-05-22T08:31:24;99578.09;;;24.50;100.00
68941;BME280;55982;51.476;7.552;2023-05-22T08:33:49;99576.16;;;24.42;100.00
68941;BME280;55982;51.476;7.552;2023-05-22T08:36:15;99588.56;;;24.43;100.00
68941;BME280;55982;51.476;7.552;2023-05-22T08:38:41;99584.41;;;24.68;100.00
68941;BME280;55982;51.476;7.552;2023-05-22T08:41:07;99587.44;;;25.74;100.00
68941;BME280;55982;51.476;7.552;2023-05-22T08:43:33;99586.34;;;25.67;100.00
68941;BME280;55982;51.476;7.552;2023-05-22T08:46:02;99580.84;;;26.21;100.00
68941;BME280;55982;51.476;7.552;2023-05-22T08:48:29;99577.31;;;25.68;100.00
68941;BME280;55982;51.476;7.552;2023-05-22T08:51:02;99571.03;;;25.77;100.00
68941;BME280;55982;51.476;7.552;2023-05-22T08:53:35;99574.25;;;25.63;100.00
68941;BME280;55982;51.476;7.552;2023-05-22T08:56:02;99575.00;;;25.73;100.00
68941;BME280;55982;51.476;7.552;2023-05-22T08:58:30;99575.16;;;25.54;100.00
68941;BME280;55982;51.476;7.552;2023-05-22T09:00:56;99574.47;;;26.04;100.00
68941;BME280;55982;51.476;7.552;2023-05-22T09:03:26;99574.34;;;26.06;100.00
68941;BME280;55982;51.476;7.552;2023-05-22T09:05:53;99579.06;;;25.59;100.00
68941;BME280;55982;51.476;7.552;2023-05-22T09:08:18;99577.63;;;26.00;100.00
68941;BME280;55982;51.476;7.552;2023-05-22T09:10:44;99574.06;;;25.19;100.00
68941;BME280;55982;51.476;7.552;2023-05-22T09:13:10;99572.06;;;24.94;100.00
68941;BME280;55982;51.476;7.552;2023-05-22T09:15:36;99574.50;;;26.22;100.00
68941;BME280;55982;51.476;7.552;2023-05-22T09:18:03;99574.66;;;26.97;100.00
68941;BME280;55982;51.476;7.552;2023-05-22T09:20:29;99570.59;;;28.49;100.00
68941;BME280;55982;51.476;7.552;2023-05-22T09:22:57;99582.38;;;28.72;100.00
68941;BME280;55982;51.476;7.552;2023-05-22T09:25:23;99581.66;;;28.95;100.00
68941;BME280;55982;51.476;7.552;2023-05-22T09:27:48;99577.38;;;28.21;100.00
68941;BME280;55982;51.476;7.552;2023-05-22T09:30:17;99582.22;;;28.01;100.00
68941;BME280;55982;51.476;7.552;2023-05-22T09:32:43;99577.66;;;28.74;100.00
68941;BME280;55982;51.476;7.552;2023-05-22T09:35:09;99577.34;;;29.24;100.00
68941;BME280;55982;51.476;7.552;2023-05-22T09:37:35;99573.75;;;29.93;99.60
68941;BME280;55982;51.476;7.552;2023-05-22T09:40:05;99579.81;;;29.34;98.17
68941;BME280;55982;51.476;7.552;2023-05-22T09:42:34;99571.44;;;28.50;100.00
68941;BME280;55982;51.476;7.552;2023-05-22T09:45:06;99576.88;;;28.18;100.00
68941;BME280;55982;51.476;7.552;2023-05-22T09:47:32;99576.94;;;28.88;100.00
68941;BME280;55982;51.476;7.552;2023-05-22T09:49:59;99568.75;;;28.74;100.00
68941;BME280;55982;51.476;7.552;2023-05-22T09:52:32;99565.47;;;30.17;98.64
68941;BME280;55982;51.476;7.552;2023-05-22T09:55:01;99577.09;;;30.78;91.55
68941;BME280;55982;51.476;7.552;2023-05-22T09:57:30;99560.22;;;29.78;98.26
68941;BME280;55982;51.476;7.552;2023-05-22T09:59:57;99566.16;;;30.56;94.89
68941;BME280;55982;51.476;7.552;2023-05-22T10:02:26;99568.72;;;30.13;89.89
68941;BME280;55982;51.476;7.552;2023-05-22T10:04:53;99551.22;;;29.86;93.24
68941;BME280;55982;51.476;7.552;2023-05-22T10:07:23;99573.19;;;30.20;89.57
68941;BME280;55982;51.476;7.552;2023-05-22T10:10:00;99553.25;;;29.84;93.10
68941;BME280;55982;51.476;7.552;2023-05-22T10:12:31;99570.13;;;29.17;100.00
68941;BME280;55982;51.476;7.552;2023-05-22T10:14:57;99572.50;;;30.63;87.26
68941;BME280;55982;51.476;7.552;2023-05-22T10:17:24;99565.94;;;30.43;86.83
68941;BME280;55982;51.476;7.552;2023-05-22T10:19:52;99565.47;;;30.17;91.62
68941;BME280;55982;51.476;7.552;2023-05-22T10:22:19;99565.13;;;30.72;92.03
68941;BME280;55982;51.476;7.552;2023-05-22T10:24:49;99563.38;;;30.64;87.88
68941;BME280;55982;51.476;7.552;2023-05-22T10:27:16;99563.50;;;29.66;88.63
68941;BME280;55982;51.476;7.552;2023-05-22T10:29:48;99557.19;;;30.19;91.97
68941;BME280;55982;51.476;7.552;2023-05-22T10:32:33;99565.09;;;30.95;82.47
68941;BME280;55982;51.476;7.552;2023-05-22T10:40:34;99550.06;;;28.72;100.00
68941;BME280;55982;51.476;7.552;2023-05-22T10:43:01;99548.22;;;28.65;97.28
68941;BME280;55982;51.476;7.552;2023-05-22T10:45:27;99546.91;;;28.29;100.00
68941;BME280;55982;51.476;7.552;2023-05-22T10:48:07;99550.28;;;29.18;93.85
68941;BME280;55982;51.476;7.552;2023-05-22T10:50:34;99550.75;;;28.66;92.89
68941;BME280;55982;51.476;7.552;2023-05-22T10:55:52;99551.41;;;31.61;79.15
68941;BME280;55982;51.476;7.552;2023-05-22T10:58:29;99552.78;;;31.72;78.12
68941;BME280;55982;51.476;7.552;2023-05-22T11:01:18;99543.28;;;31.61;78.16
68941;BME280;55982;51.476;7.552;2023-05-22T11:06:44;99540.00;;;32.29;81.41
68941;BME280;55982;51.476;7.552;2023-05-22T11:09:18;99548.81;;;31.74;71.85
68941;BME280;55982;51.476;7.552;2023-05-22T11:11:44;99545.22;;;30.73;79.97
68941;BME280;55982;51.476;7.552;2023-05-22T11:14:11;99534.16;;;31.12;77.37
68941;BME280;55982;51.476;7.552;2023-05-22T11:16:39;99539.88;;;32.65;72.90
68941;BME280;55982;51.476;7.552;2023-05-22T11:19:06;99534.75;;;32.00;72.06
68941;BME280;55982;51.476;7.552;2023-05-22T11:21:51;99532.00;;;30.26;75.40
68941;BME280;55982;51.476;7.552;2023-05-22T11:24:17;99523.00;;;31.36;77.35
68941;BME280;55982;51.476;7.552;2023-05-22T11:26:43;99526.94;;;31.90;69.67
68941;BME280;55982;51.476;7.552;2023-05-22T11:29:09;99530.03;;;30.57;77.84
68941;BME280;55982;51.476;7.552;2023-05-22T11:31:35;99525.22;;;28.54;81.28
68941;BME280;55982;51.476;7.552;2023-05-22T11:34:03;99515.47;;;28.05;89.07
68941;BME280;55982;51.476;7.552;2023-05-22T11:36:29;99520.66;;;27.74;95.30
68941;BME280;55982;51.476;7.552;2023-05-22T11:38:58;99521.59;;;28.78;97.23
68941;BME280;55982;51.476;7.552;2023-05-22T11:41:29;99519.91;;;30.89;80.33
68941;BME280;55982;51.476;7.552;2023-05-22T11:43:54;99513.16;;;32.06;75.50
68941;BME280;55982;51.476;7.552;2023-05-22T11:46:21;99514.28;;;31.19;74.92
68941;BME280;55982;51.476;7.552;2023-05-22T11:48:46;99510.66;;;30.98;75.94
68941;BME280;55982;51.476;7.552;2023-05-22T11:51:12;99508.25;;;31.74;71.78
68941;BME280;55982;51.476;7.552;2023-05-22T11:53:37;99508.31;;;32.85;67.53
68941;BME280;55982;51.476;7.552;2023-05-22T11:56:05;99511.03;;;32.91;66.85
68941;BME280;55982;51.476;7.552;2023-05-22T11:58:31;99502.44;;;32.19;70.97
68941;BME280;55982;51.476;7.552;2023-05-22T12:01:03;99495.31;;;30.54;79.86
68941;BME280;55982;51.476;7.552;2023-05-22T12:03:30;99496.63;;;32.22;72.56
68941;BME280;55982;51.476;7.552;2023-05-22T12:05:56;99494.00;;;33.45;70.03
68941;BME280;55982;51.476;7.552;2023-05-22T12:08:23;99494.28;;;33.95;66.01
68941;BME280;55982;51.476;7.552;2023-05-22T12:10:49;99489.09;;;32.46;69.41
68941;BME280;55982;51.476;7.552;2023-05-22T12:13:24;99487.25;;;31.55;70.85
68941;BME280;55982;51.476;7.552;2023-05-22T12:15:52;99493.72;;;30.23;78.86
68941;BME280;55982;51.476;7.552;2023-05-22T12:18:19;99482.78;;;30.68;75.29
68941;BME280;55982;51.476;7.552;2023-05-22T12:20:44;99491.22;;;31.38;75.19
68941;BME280;55982;51.476;7.552;2023-05-22T12:23:11;99490.31;;;29.69;82.08
68941;BME280;55982;51.476;7.552;2023-05-22T12:25:37;99477.66;;;29.47;91.69
68941;BME280;55982;51.476;7.552;2023-05-22T12:28:02;99481.16;;;27.67;97.28
68941;BME280;55982;51.476;7.552;2023-05-22T12:30:38;99486.03;;;26.97;99.69
68941;BME280;55982;51.476;7.552;2023-05-22T12:33:11;99488.56;;;27.65;97.84
68941;BME280;55982;51.476;7.552;2023-05-22T12:35:37;99492.91;;;28.38;98.07
68941;BME280;55982;51.476;7.552;2023-05-22T12:38:02;99493.41;;;30.03;86.92
68941;BME280;55982;51.476;7.552;2023-05-22T12:40:27;99501.16;;;30.73;81.74
68941;BME280;55982;51.476;7.552;2023-05-22T12:42:53;99496.31;;;30.53;86.85
68941;BME280;55982;51.476;7.552;2023-05-22T12:45:18;99502.81;;;31.03;78.38
68941;BME280;55982;51.476;7.552;2023-05-22T12:47:44;99491.00;;;29.63;81.21
68941;BME280;55982;51.476;7.552;2023-05-22T12:50:10;99501.66;;;28.56;88.43
68941;BME280;55982;51.476;7.552;2023-05-22T12:52:36;99498.00;;;27.93;95.37
68941;BME280;55982;51.476;7.552;2023-05-22T12:55:02;99496.66;;;27.89;97.02
68941;BME280;55982;51.476;7.552;2023-05-22T12:57:27;99495.28;;;28.33;90.74
68941;BME280;55982;51.476;7.552;2023-05-22T12:59:53;99505.22;;;28.87;89.85
68941;BME280;55982;51.476;7.552;2023-05-22T13:02:18;99506.38;;;30.59;78.83
68941;BME280;55982;51.476;7.552;2023-05-22T13:04:46;99507.47;;;32.01;74.05
68941;BME280;55982;51.476;7.552;2023-05-22T13:07:11;99518.84;;;30.60;78.78
68941;BME280;55982;51.476;7.552;2023-05-22T13:09:37;99513.69;;;29.76;81.91
68941;BME280;55982;51.476;7.552;2023-05-22T13:12:02;99505.63;;;29.76;79.75
68941;BME280;55982;51.476;7.552;2023-05-22T13:14:28;99507.63;;;28.82;90.68
68941;BME280;55982;51.476;7.552;2023-05-22T13:16:53;99507.59;;;28.28;100.00